createdAt,value
2023-02-27T00:00:16.621Z,3.75
2023-02-27T00:02:48.520Z,3.61
2023-02-27T00:05:16.181Z,3.63
2023-02-27T00:07:43.013Z,3.65
2023-02-27T00:10:12.984Z,3.69
2023-02-27T00:12:40.430Z,3.58
2023-02-27T00:15:14.268Z,3.58
2023-02-27T00:17:41.740Z,3.66
2023-02-27T00:20:12.890Z,3.54
2023-02-27T00:22:41.070Z,3.51
2023-02-27T00:25:09.231Z,3.52
2023-02-27T00:27:37.175Z,3.55
2023-02-27T00:30:08.986Z,3.65
2023-02-27T00:32:36.948Z,3.63
2023-02-27T00:35:09.006Z,3.60
2023-02-27T00:37:36.709Z,3.59
2023-02-27T00:40:05.515Z,3.64
2023-02-27T00:42:32.662Z,3.58
2023-02-27T00:44:59.645Z,3.59
2023-02-27T00:47:26.708Z,3.60
2023-02-27T00:49:53.678Z,3.66
2023-02-27T00:52:20.612Z,3.60
2023-02-27T00:54:47.493Z,3.67
2023-02-27T00:57:14.452Z,3.77
2023-02-27T00:59:41.552Z,3.68
2023-02-27T01:02:08.654Z,3.65
2023-02-27T01:04:36.027Z,3.51
2023-02-27T01:07:03.127Z,3.47
2023-02-27T01:09:30.228Z,3.59
2023-02-27T01:11:57.774Z,3.52
2023-02-27T01:14:24.675Z,3.48
2023-02-27T01:16:53.922Z,3.60
2023-02-27T01:19:20.854Z,3.60
2023-02-27T01:21:47.722Z,3.62
2023-02-27T01:24:14.521Z,3.56
2023-02-27T01:26:41.672Z,3.33
2023-02-27T01:29:08.653Z,3.25
2023-02-27T01:31:35.474Z,3.45
2023-02-27T01:34:02.548Z,3.48
2023-02-27T01:36:29.739Z,3.36
2023-02-27T01:38:58.009Z,3.35
2023-02-27T01:41:25.013Z,3.67
2023-02-27T01:43:59.605Z,3.65
2023-02-27T01:46:27.845Z,3.62
2023-02-27T01:48:59.775Z,3.65
2023-02-27T01:51:31.809Z,3.56
2023-02-27T01:53:59.321Z,3.62
2023-02-27T01:56:30.198Z,3.69
2023-02-27T01:59:02.082Z,3.75
2023-02-27T02:01:47.829Z,3.69
2023-02-27T02:04:28.333Z,3.62
2023-02-27T02:06:59.862Z,3.60
2023-02-27T02:09:29.057Z,3.50
2023-02-27T02:11:58.153Z,3.66
2023-02-27T02:14:25.074Z,3.72
2023-02-27T02:17:22.761Z,3.66
2023-02-27T02:20:46.557Z,3.55
2023-02-27T02:23:31.759Z,3.60
2023-02-27T02:26:25.027Z,3.74
2023-02-27T02:29:19.840Z,3.77
2023-02-27T02:32:28.305Z,3.67
2023-02-27T02:35:16.280Z,3.59
2023-02-27T02:38:17.157Z,3.59
2023-02-27T02:40:59.424Z,3.48
2023-02-27T02:43:43.849Z,3.46
2023-02-27T02:46:19.490Z,3.47
2023-02-27T02:48:53.401Z,3.37
2023-02-27T02:51:40.007Z,3.31
2023-02-27T02:54:39.033Z,3.34
2023-02-27T02:57:14.869Z,3.46
2023-02-27T03:00:00.219Z,3.45
2023-02-27T03:02:36.790Z,3.35
2023-02-27T03:05:08.979Z,3.43
2023-02-27T03:07:42.680Z,3.26
2023-02-27T03:10:21.288Z,3.24
2023-02-27T03:13:02.227Z,3.30
2023-02-27T03:15:45.227Z,3.16
2023-02-27T03:18:24.838Z,3.29
2023-02-27T03:21:04.250Z,3.08
2023-02-27T03:23:44.206Z,3.19
2023-02-27T03:26:15.177Z,3.23
2023-02-27T03:28:54.147Z,3.08
2023-02-27T03:31:31.882Z,3.15
2023-02-27T03:34:20.487Z,3.17
2023-02-27T03:36:58.408Z,3.21
2023-02-27T03:39:45.604Z,3.13
2023-02-27T03:42:12.556Z,3.14
2023-02-27T03:44:52.515Z,3.10
2023-02-27T03:47:20.273Z,3.10
2023-02-27T03:49:47.410Z,2.92
2023-02-27T03:52:14.439Z,2.93
2023-02-27T03:54:49.978Z,2.95
2023-02-27T03:57:16.860Z,2.85
2023-02-27T03:59:43.845Z,2.82
2023-02-27T04:02:11.248Z,2.80
2023-02-27T04:04:38.913Z,2.68
2023-02-27T04:07:39.332Z,2.84
2023-02-27T04:10:36.474Z,2.89
2023-02-27T04:13:51.339Z,2.75
2023-02-27T04:16:48.115Z,2.83
2023-02-27T04:19:23.673Z,2.93
2023-02-27T04:22:14.345Z,2.92
2023-02-27T04:24:47.093Z,2.82
2023-02-27T04:27:35.315Z,2.77
2023-02-27T04:30:20.756Z,2.64
2023-02-27T04:33:08.128Z,2.67
2023-02-27T04:35:35.074Z,2.73
2023-02-27T04:38:35.175Z,2.80
2023-02-27T04:41:07.522Z,2.66
2023-02-27T04:43:37.532Z,2.70
2023-02-27T04:46:08.591Z,2.65
2023-02-27T04:48:48.323Z,2.74
2023-02-27T04:51:20.194Z,2.65
2023-02-27T04:53:52.745Z,2.80
2023-02-27T04:56:32.524Z,2.78
2023-02-27T04:59:05.478Z,2.77
2023-02-27T05:01:40.915Z,2.80
2023-02-27T05:04:12.612Z,2.67
2023-02-27T05:06:42.921Z,2.67
2023-02-27T05:09:27.123Z,2.74
2023-02-27T05:12:01.304Z,2.75
2023-02-27T05:14:28.065Z,2.92
2023-02-27T05:17:07.436Z,2.91
2023-02-27T05:19:37.324Z,2.80
2023-02-27T05:22:10.503Z,2.68
2023-02-27T05:24:54.434Z,2.79
2023-02-27T05:27:33.445Z,2.82
2023-02-27T05:30:08.837Z,2.86
2023-02-27T05:32:45.192Z,2.88
2023-02-27T05:35:32.984Z,2.94
2023-02-27T05:38:03.056Z,2.86
2023-02-27T05:40:37.342Z,2.84
2023-02-27T05:43:19.246Z,2.76
2023-02-27T05:45:50.321Z,2.77
2023-02-27T05:48:41.962Z,2.77
2023-02-27T05:51:11.474Z,2.68
2023-02-27T05:53:43.530Z,2.78
2023-02-27T05:56:14.669Z,2.75
2023-02-27T05:58:46.155Z,2.87
2023-02-27T06:01:13.017Z,2.63
2023-02-27T06:03:41.231Z,2.72
2023-02-27T06:06:12.787Z,2.82
2023-02-27T06:08:39.616Z,2.91
2023-02-27T06:11:06.590Z,2.77
2023-02-27T06:13:33.367Z,2.75
2023-02-27T06:16:00.255Z,2.80
2023-02-27T06:18:27.217Z,2.78
2023-02-27T06:20:54.466Z,2.64
2023-02-27T06:23:21.484Z,2.74
2023-02-27T06:25:49.055Z,2.73
2023-02-27T06:28:16.063Z,2.85
2023-02-27T06:30:44.654Z,2.93
2023-02-27T06:33:12.917Z,3.07
2023-02-27T06:35:40.404Z,2.97
2023-02-27T06:38:07.397Z,2.82
2023-02-27T06:40:34.335Z,2.76
2023-02-27T06:43:01.404Z,2.87
2023-02-27T06:45:28.256Z,2.93
2023-02-27T06:47:55.404Z,2.92
2023-02-27T06:50:22.312Z,2.88
2023-02-27T06:52:49.153Z,3.03
2023-02-27T06:55:20.542Z,2.90
2023-02-27T06:57:47.832Z,3.03
2023-02-27T07:00:15.768Z,2.98
2023-02-27T07:02:42.685Z,3.11
2023-02-27T07:05:12.181Z,3.16
2023-02-27T07:07:39.693Z,3.23
2023-02-27T07:10:11.410Z,3.17
2023-02-27T07:12:39.484Z,3.07
2023-02-27T07:15:07.017Z,3.12
2023-02-27T07:17:33.935Z,3.26
2023-02-27T07:20:01.163Z,3.26
2023-02-27T07:22:27.981Z,3.32
2023-02-27T07:24:55.260Z,3.22
2023-02-27T07:27:22.332Z,3.38
2023-02-27T07:29:49.312Z,3.34
2023-02-27T07:32:16.448Z,3.35
2023-02-27T07:34:43.428Z,3.40
2023-02-27T07:37:10.228Z,3.35
2023-02-27T07:39:37.301Z,3.39
2023-02-27T07:42:04.226Z,3.49
2023-02-27T07:44:31.287Z,3.35
2023-02-27T07:46:58.205Z,3.40
2023-02-27T07:49:25.423Z,3.46
2023-02-27T07:51:52.217Z,3.40
2023-02-27T07:54:19.502Z,3.55
2023-02-27T07:56:46.316Z,3.61
2023-02-27T07:59:13.172Z,3.65
2023-02-27T08:01:39.995Z,3.59
2023-02-27T08:04:06.821Z,3.55
2023-02-27T08:06:33.635Z,3.46
2023-02-27T08:09:00.676Z,3.59
2023-02-27T08:11:27.806Z,3.46
2023-02-27T08:14:02.569Z,3.45
2023-02-27T08:16:31.723Z,3.39
2023-02-27T08:18:59.344Z,3.53
2023-02-27T08:21:26.637Z,3.35
2023-02-27T08:23:54.678Z,3.52
2023-02-27T08:26:21.565Z,3.43
2023-02-27T08:28:48.502Z,3.37
2023-02-27T08:31:15.498Z,3.39
2023-02-27T08:33:42.511Z,3.27
2023-02-27T08:36:10.268Z,3.38
2023-02-27T08:38:37.267Z,3.37
2023-02-27T08:41:04.360Z,3.44
2023-02-27T08:43:31.228Z,3.46
2023-02-27T08:45:58.275Z,3.43
2023-02-27T08:48:25.451Z,3.41
2023-02-27T08:50:52.587Z,3.52
2023-02-27T08:53:19.836Z,3.57
2023-02-27T08:55:51.293Z,3.64
2023-02-27T08:58:19.039Z,3.61
2023-02-27T09:00:46.467Z,3.53
2023-02-27T09:03:13.823Z,3.63
2023-02-27T09:05:42.117Z,3.69
2023-02-27T09:08:09.316Z,3.75
2023-02-27T09:10:36.770Z,3.70
2023-02-27T09:13:03.624Z,3.68
2023-02-27T09:15:31.964Z,3.95
2023-02-27T09:18:03.228Z,3.96
2023-02-27T09:20:31.894Z,3.78
2023-02-27T09:23:00.034Z,3.88
2023-02-27T09:25:28.129Z,3.82
2023-02-27T09:27:55.338Z,3.86
2023-02-27T09:30:23.116Z,3.94
2023-02-27T09:32:50.220Z,3.92
2023-02-27T09:35:17.502Z,3.93
2023-02-27T09:37:44.459Z,3.87
2023-02-27T09:40:17.309Z,3.95
2023-02-27T09:42:48.808Z,3.76
2023-02-27T09:45:25.021Z,3.71
2023-02-27T09:47:56.475Z,3.48
2023-02-27T09:50:48.341Z,3.54
2023-02-27T09:53:39.922Z,3.60
2023-02-27T09:56:13.908Z,3.86
2023-02-27T09:59:04.946Z,3.79
2023-02-27T10:01:42.706Z,3.87
2023-02-27T10:04:30.728Z,3.81
2023-02-27T10:07:17.216Z,3.93
2023-02-27T10:09:58.182Z,3.43
2023-02-27T10:15:44.111Z,3.85
2023-02-27T10:18:28.224Z,4.10
2023-02-27T10:21:14.144Z,3.94
2023-02-27T10:23:46.542Z,3.65
2023-02-27T10:26:23.179Z,3.59
2023-02-27T10:28:49.977Z,3.75
2023-02-27T10:31:25.833Z,3.90
2023-02-27T10:33:54.817Z,3.98
2023-02-27T10:36:33.716Z,4.06
2023-02-27T10:39:09.275Z,3.85
2023-02-27T10:41:38.135Z,4.05
2023-02-27T10:44:05.309Z,4.02
2023-02-27T10:46:40.877Z,3.83
2023-02-27T10:49:19.077Z,3.90
2023-02-27T10:52:08.813Z,3.67
2023-02-27T10:54:36.066Z,3.63
2023-02-27T10:57:07.857Z,3.81
2023-02-27T10:59:41.104Z,3.66
2023-02-27T11:02:18.007Z,4.02
2023-02-27T11:04:54.517Z,3.93
2023-02-27T11:07:32.868Z,3.84
2023-02-27T11:10:11.098Z,3.68
2023-02-27T11:12:39.135Z,3.93
2023-02-27T11:15:15.233Z,3.83
2023-02-27T11:17:43.577Z,3.80
2023-02-27T11:20:32.147Z,4.02
2023-02-27T11:23:14.148Z,3.87
2023-02-27T11:25:41.411Z,4.02
2023-02-27T11:28:30.257Z,3.91
2023-02-27T11:30:57.265Z,3.88
2023-02-27T11:33:25.447Z,3.96
2023-02-27T11:35:57.413Z,3.98
2023-02-27T11:38:30.550Z,4.04
2023-02-27T11:41:01.169Z,3.89
2023-02-27T11:43:51.075Z,3.77
2023-02-27T11:46:46.587Z,3.57
2023-02-27T11:49:21.825Z,3.73
2023-02-27T11:52:11.818Z,3.53
2023-02-27T11:54:47.953Z,3.94
2023-02-27T11:57:35.463Z,3.48
2023-02-27T12:00:16.640Z,3.67
2023-02-27T12:03:21.431Z,3.57
2023-02-27T12:05:54.902Z,3.54
2023-02-27T12:08:43.896Z,3.64
2023-02-27T12:11:30.153Z,3.38
2023-02-27T12:14:08.917Z,3.38
2023-02-27T12:16:57.108Z,3.60
2023-02-27T12:19:38.224Z,3.63
2023-02-27T12:22:17.440Z,3.55
2023-02-27T12:24:53.161Z,3.55
2023-02-27T12:27:26.141Z,3.80
2023-02-27T12:30:00.626Z,3.80
2023-02-27T12:32:47.116Z,3.74
2023-02-27T12:35:22.513Z,3.81
2023-02-27T12:37:59.888Z,3.97
2023-02-27T12:40:36.987Z,4.08
2023-02-27T12:43:11.090Z,3.86
2023-02-27T12:45:41.051Z,3.77
2023-02-27T12:48:37.661Z,3.95
2023-02-27T12:51:17.350Z,3.90
2023-02-27T12:53:59.345Z,3.77
2023-02-27T12:56:43.830Z,3.76
2023-02-27T12:59:24.894Z,3.98
2023-02-27T13:01:58.715Z,3.97
2023-02-27T13:04:42.783Z,3.76
2023-02-27T13:07:24.668Z,4.01
2023-02-27T13:10:11.680Z,4.08
2023-02-27T13:12:38.402Z,4.06
2023-02-27T13:15:25.739Z,3.99
2023-02-27T13:18:06.364Z,4.01
2023-02-27T13:20:51.977Z,4.07
2023-02-27T13:23:48.683Z,4.04
2023-02-27T13:26:34.248Z,4.09
2023-02-27T13:29:01.811Z,3.91
2023-02-27T13:31:34.723Z,3.98
2023-02-27T13:34:20.637Z,4.14
2023-02-27T13:36:52.930Z,4.09
2023-02-27T13:39:53.359Z,3.98
2023-02-27T13:42:26.227Z,3.88
2023-02-27T13:45:04.898Z,3.76
2023-02-27T13:47:40.097Z,3.79
2023-02-27T13:50:33.179Z,3.71
2023-02-27T13:53:10.084Z,3.68
2023-02-27T13:55:37.192Z,3.79
2023-02-27T13:58:05.737Z,3.89
2023-02-27T14:00:35.658Z,3.94
2023-02-27T14:03:17.603Z,3.83
2023-02-27T14:05:47.415Z,3.83
2023-02-27T14:08:48.368Z,3.75
2023-02-27T14:11:23.798Z,3.80
2023-02-27T14:13:50.690Z,3.93
2023-02-27T14:16:40.028Z,4.03
2023-02-27T14:19:16.056Z,4.01
2023-02-27T14:21:56.605Z,3.94
2023-02-27T14:24:36.555Z,3.84
2023-02-27T14:27:05.779Z,3.59
2023-02-27T14:29:34.520Z,3.68
2023-02-27T14:32:07.117Z,3.59
2023-02-27T14:34:38.368Z,3.62
2023-02-27T14:37:10.504Z,3.59
2023-02-27T14:39:38.432Z,3.64
2023-02-27T14:42:30.800Z,3.67
2023-02-27T14:44:57.917Z,3.68
2023-02-27T14:47:33.502Z,3.75
2023-02-27T14:50:04.821Z,3.61
2023-02-27T14:52:41.451Z,3.57
2023-02-27T14:55:14.322Z,3.64
2023-02-27T14:57:41.630Z,3.72
2023-02-27T15:00:41.319Z,3.66
2023-02-27T15:03:25.395Z,3.61
2023-02-27T15:05:55.405Z,3.55
2023-02-27T15:08:36.970Z,3.65
2023-02-27T15:11:05.042Z,3.75
2023-02-27T15:13:36.242Z,3.49
2023-02-27T15:16:41.896Z,3.59
2023-02-27T15:19:20.422Z,3.59
2023-02-27T15:21:52.859Z,3.57
2023-02-27T15:24:48.843Z,3.55
2023-02-27T15:27:22.966Z,3.62
2023-02-27T15:30:01.140Z,3.74
2023-02-27T15:32:43.208Z,3.78
2023-02-27T15:35:30.797Z,3.74
2023-02-27T15:37:59.806Z,3.85
2023-02-27T15:40:29.137Z,3.72
2023-02-27T15:42:57.190Z,3.79
2023-02-27T15:45:36.248Z,3.40
2023-02-27T15:48:04.270Z,3.56
2023-02-27T15:50:38.184Z,3.56
2023-02-27T15:53:19.686Z,3.80
2023-02-27T15:55:51.257Z,3.72
2023-02-27T15:58:24.950Z,3.83
2023-02-27T16:01:00.912Z,3.68
2023-02-27T16:03:49.339Z,3.68
2023-02-27T16:06:18.487Z,3.53
2023-02-27T16:08:51.241Z,3.38
2023-02-27T16:11:20.080Z,3.36
2023-02-27T16:13:47.994Z,3.46
2023-02-27T16:16:20.850Z,3.56
2023-02-27T16:18:49.097Z,3.49
2023-02-27T16:21:18.807Z,3.48
2023-02-27T16:23:46.827Z,3.47
2023-02-27T16:26:38.927Z,3.62
2023-02-27T16:29:18.405Z,3.50
2023-02-27T16:31:55.008Z,3.61
2023-02-27T16:34:44.745Z,3.79
2023-02-27T16:37:36.008Z,3.56
2023-02-27T16:40:12.989Z,3.59
2023-02-27T16:42:40.715Z,3.61
2023-02-27T16:45:11.157Z,3.67
2023-02-27T16:47:38.049Z,3.70
2023-02-27T16:50:06.885Z,3.65
2023-02-27T16:52:33.672Z,3.66
2023-02-27T16:55:00.575Z,3.64
2023-02-27T16:57:27.897Z,3.47
2023-02-27T16:59:54.762Z,3.54
2023-02-27T17:02:21.574Z,3.44
2023-02-27T17:04:50.062Z,3.52
2023-02-27T17:07:18.414Z,3.53
2023-02-27T17:09:46.352Z,3.58
2023-02-27T17:12:13.817Z,3.58
2023-02-27T17:14:40.660Z,3.57
2023-02-27T17:17:08.011Z,3.56
2023-02-27T17:19:35.089Z,3.57
2023-02-27T17:22:02.251Z,3.64
2023-02-27T17:24:29.499Z,3.82
2023-02-27T17:26:57.253Z,3.65
2023-02-27T17:29:25.465Z,3.65
2023-02-27T17:31:53.174Z,3.68
2023-02-27T17:34:20.128Z,3.70
2023-02-27T17:36:50.055Z,3.54
2023-02-27T17:39:18.377Z,3.52
2023-02-27T17:41:45.333Z,3.67
2023-02-27T17:44:12.496Z,3.77
2023-02-27T17:46:40.703Z,3.69
2023-02-27T17:49:07.922Z,3.74
2023-02-27T17:51:34.760Z,4.67
2023-02-27T17:54:03.801Z,4.16
2023-02-27T17:56:31.047Z,4.04
2023-02-27T17:58:58.417Z,3.98
2023-02-27T18:01:27.190Z,3.92
2023-02-27T18:03:55.523Z,3.89
2023-02-27T18:06:23.975Z,4.00
2023-02-27T18:08:50.989Z,3.81
2023-02-27T18:11:20.170Z,3.68
2023-02-27T18:13:47.580Z,3.77
2023-02-27T18:16:15.162Z,3.82
2023-02-27T18:18:43.512Z,3.90
2023-02-27T18:21:14.697Z,3.97
2023-02-27T18:23:42.446Z,3.91
2023-02-27T18:26:32.458Z,3.84
2023-02-27T18:29:02.614Z,3.69
2023-02-27T18:31:35.396Z,3.84
2023-02-27T18:34:02.340Z,3.71
2023-02-27T18:36:32.441Z,3.66
2023-02-27T18:39:00.237Z,3.73
2023-02-27T18:41:28.226Z,3.46
2023-02-27T18:43:55.551Z,3.53
2023-02-27T18:46:22.572Z,3.37
2023-02-27T18:48:49.853Z,3.36
2023-02-27T18:51:18.196Z,3.49
2023-02-27T18:53:48.141Z,3.57
2023-02-27T18:56:17.302Z,3.59
2023-02-27T18:58:44.591Z,3.76
2023-02-27T19:01:26.982Z,3.78
2023-02-27T19:04:00.467Z,3.75
2023-02-27T19:06:28.628Z,3.66
2023-02-27T19:08:55.947Z,3.74
2023-02-27T19:11:33.681Z,3.76
2023-02-27T19:14:02.854Z,3.73
2023-02-27T19:16:30.986Z,3.69
2023-02-27T19:18:59.530Z,3.68
2023-02-27T19:21:27.565Z,3.66
2023-02-27T19:23:55.464Z,3.81
2023-02-27T19:26:24.467Z,3.78
2023-02-27T19:28:54.283Z,3.75
2023-02-27T19:31:22.915Z,3.78
2023-02-27T19:33:50.463Z,3.74
2023-02-27T19:36:21.081Z,3.68
2023-02-27T19:38:48.650Z,3.59
2023-02-27T19:41:19.802Z,3.69
2023-02-27T19:43:47.897Z,3.60
2023-02-27T19:46:24.154Z,3.57
2023-02-27T19:48:52.797Z,3.69
2023-02-27T19:51:21.261Z,3.64
2023-02-27T19:53:51.351Z,3.86
2023-02-27T19:56:26.929Z,3.67
2023-02-27T19:58:54.555Z,3.66
2023-02-27T20:01:33.078Z,3.69
2023-02-27T20:04:01.924Z,3.62
2023-02-27T20:06:31.196Z,3.61
2023-02-27T20:08:59.087Z,3.64
2023-02-27T20:11:33.012Z,3.58
2023-02-27T20:14:00.608Z,3.62
2023-02-27T20:16:30.132Z,3.57
2023-02-27T20:18:57.370Z,3.68
2023-02-27T20:21:28.713Z,3.83
2023-02-27T20:23:56.491Z,3.82
2023-02-27T20:26:28.396Z,3.77
2023-02-27T20:28:57.472Z,3.51
2023-02-27T20:31:29.273Z,3.53
2023-02-27T20:33:57.463Z,3.52
2023-02-27T20:36:24.930Z,3.53
2023-02-27T20:38:51.979Z,3.69
2023-02-27T20:41:23.112Z,3.79
2023-02-27T20:43:50.311Z,3.70
2023-02-27T20:46:20.250Z,3.74
2023-02-27T20:48:47.621Z,3.82
2023-02-27T20:51:17.630Z,3.92
2023-02-27T20:53:47.480Z,3.90
2023-02-27T20:56:15.347Z,4.10
2023-02-27T20:58:42.334Z,3.93
2023-02-27T21:01:14.306Z,3.84
2023-02-27T21:03:43.031Z,3.86
2023-02-27T21:06:12.795Z,3.77
2023-02-27T21:08:42.393Z,3.81
2023-02-27T21:11:15.150Z,3.80
2023-02-27T21:13:42.377Z,3.74
2023-02-27T21:16:11.110Z,3.72
2023-02-27T21:18:38.347Z,3.73
2023-02-27T21:21:07.539Z,3.69
2023-02-27T21:23:41.125Z,3.26
2023-02-27T21:26:21.477Z,3.47
2023-02-27T21:29:01.137Z,3.32
2023-02-27T21:31:32.637Z,2.94
2023-02-27T21:34:01.343Z,3.23
2023-02-27T21:36:32.544Z,3.20
2023-02-27T21:39:01.201Z,3.07
2023-02-27T21:41:29.674Z,3.26
2023-02-27T21:44:05.080Z,3.09
2023-02-27T21:46:33.471Z,3.02
2023-02-27T21:49:01.294Z,3.20
2023-02-27T21:51:41.493Z,3.02
2023-02-27T21:54:11.186Z,3.03
2023-02-27T21:56:38.875Z,3.07
2023-02-27T21:59:06.046Z,3.01
2023-02-27T22:01:33.734Z,3.17
2023-02-27T22:04:02.052Z,3.15
2023-02-27T22:06:32.283Z,3.22
2023-02-27T22:09:01.842Z,3.19
2023-02-27T22:11:31.695Z,3.01
2023-02-27T22:13:58.592Z,3.05
2023-02-27T22:16:25.584Z,2.96
2023-02-27T22:18:53.555Z,3.01
2023-02-27T22:21:23.003Z,2.97
2023-02-27T22:23:50.263Z,3.04
2023-02-27T22:26:24.343Z,3.05
2023-02-27T22:28:52.346Z,3.11
2023-02-27T22:31:24.307Z,3.23
2023-02-27T22:33:54.217Z,3.42
2023-02-27T22:36:27.764Z,3.32
2023-02-27T22:38:55.003Z,3.31
2023-02-27T22:41:27.961Z,3.26
2023-02-27T22:43:55.458Z,3.32
2023-02-27T22:46:37.160Z,3.19
2023-02-27T22:49:12.781Z,3.32
2023-02-27T22:51:39.757Z,3.31
2023-02-27T22:54:07.694Z,3.30
2023-02-27T22:56:36.568Z,3.24
2023-02-27T22:59:04.816Z,3.24
2023-02-27T23:01:34.581Z,3.31
2023-02-27T23:04:07.684Z,3.26
2023-02-27T23:06:40.378Z,3.20
2023-02-27T23:09:10.937Z,3.35
2023-02-27T23:11:50.032Z,3.29
2023-02-27T23:14:17.412Z,3.32
2023-02-27T23:16:47.165Z,3.25
2023-02-27T23:19:16.307Z,3.22
2023-02-27T23:21:43.574Z,3.25
2023-02-27T23:24:15.702Z,3.24
2023-02-27T23:26:45.941Z,3.27
2023-02-27T23:29:13.384Z,3.20
2023-02-27T23:31:40.945Z,3.36
2023-02-27T23:34:08.173Z,3.32
2023-02-27T23:36:35.802Z,3.39
2023-02-27T23:39:04.324Z,3.44
2023-02-27T23:41:32.432Z,3.15
2023-02-27T23:44:17.548Z,3.14
2023-02-27T23:46:44.470Z,3.34
2023-02-27T23:49:11.779Z,3.44
2023-02-27T23:51:38.867Z,3.10
2023-02-27T23:54:05.775Z,3.28
2023-02-27T23:56:32.838Z,3.07
2023-02-27T23:59:02.921Z,3.21
